sensor_id;sensor_type;location;lat;lon;timestamp;pressure;altitude;pressure_sealevel;temperature
79495;BMP180;68951;53.130;18.104;2023-12-28T00:02:06;101087.00;;;
79495;BMP180;68951;53.130;18.104;2023-12-28T00:04:33;101088.00;;;
79495;BMP180;68951;53.130;18.104;2023-12-28T00:07:02;101090.80;;;
79495;BMP180;68951;53.130;18.104;2023-12-28T00:09:30;101093.80;;;
79495;BMP180;68951;53.130;18.104;2023-12-28T00:11:58;101091.40;;;
79495;BMP180;68951;53.130;18.104;2023-12-28T00:14:25;101082.60;;;
79495;BMP180;68951;53.130;18.104;2023-12-28T00:16:52;101080.80;;;
79495;BMP180;68951;53.130;18.104;2023-12-28T00:19:19;101080.40;;;
79495;BMP180;68951;53.130;18.104;2023-12-28T00:21:48;101068.20;;;
79495;BMP180;68951;53.130;18.104;2023-12-28T00:24:16;101066.80;;;
79495;BMP180;68951;53.130;18.104;2023-12-28T00:26:43;101068.20;;;
79495;BMP180;68951;53.130;18.104;2023-12-28T00:29:09;101060.40;;;
79495;BMP180;68951;53.130;18.104;2023-12-28T00:31:37;101046.40;;;
79495;BMP180;68951;53.130;18.104;2023-12-28T00:34:03;101036.80;;;
79495;BMP180;68951;53.130;18.104;2023-12-28T00:36:30;101030.00;;;
79495;BMP180;68951;53.130;18.104;2023-12-28T00:38:58;101024.80;;;
79495;BMP180;68951;53.130;18.104;2023-12-28T00:41:25;101015.60;;;
79495;BMP180;68951;53.130;18.104;2023-12-28T00:43:51;101012.40;;;
79495;BMP180;68951;53.130;18.104;2023-12-28T00:46:18;101013.60;;;
79495;BMP180;68951;53.130;18.104;2023-12-28T00:48:45;101007.00;;;
79495;BMP180;68951;53.130;18.104;2023-12-28T00:51:13;101001.80;;;
79495;BMP180;68951;53.130;18.104;2023-12-28T00:53:40;100990.80;;;
79495;BMP180;68951;53.130;18.104;2023-12-28T00:56:10;100989.00;;;
79495;BMP180;68951;53.130;18.104;2023-12-28T00:58:40;100985.00;;;
79495;BMP180;68951;53.130;18.104;2023-12-28T01:01:09;100986.80;;;
79495;BMP180;68951;53.130;18.104;2023-12-28T01:03:36;100985.40;;;
79495;BMP180;68951;53.130;18.104;2023-12-28T01:06:05;100983.00;;;
79495;BMP180;68951;53.130;18.104;2023-12-28T01:08:32;100978.40;;;
79495;BMP180;68951;53.130;18.104;2023-12-28T01:11:02;100973.00;;;
79495;BMP180;68951;53.130;18.104;2023-12-28T01:13:29;100956.60;;;
79495;BMP180;68951;53.130;18.104;2023-12-28T01:15:57;100944.00;;;
79495;BMP180;68951;53.130;18.104;2023-12-28T01:18:24;100932.00;;;
79495;BMP180;68951;53.130;18.104;2023-12-28T01:20:50;100941.60;;;
79495;BMP180;68951;53.130;18.104;2023-12-28T01:23:17;100943.20;;;
79495;BMP180;68951;53.130;18.104;2023-12-28T01:25:44;100937.80;;;
79495;BMP180;68951;53.130;18.104;2023-12-28T01:28:11;100934.80;;;
79495;BMP180;68951;53.130;18.104;2023-12-28T01:30:39;100937.00;;;
79495;BMP180;68951;53.130;18.104;2023-12-28T01:33:06;100941.00;;;
79495;BMP180;68951;53.130;18.104;2023-12-28T01:35:34;100944.20;;;
79495;BMP180;68951;53.130;18.104;2023-12-28T01:38:00;100943.20;;;
79495;BMP180;68951;53.130;18.104;2023-12-28T01:40:29;100947.40;;;
79495;BMP180;68951;53.130;18.104;2023-12-28T01:42:55;100942.60;;;
79495;BMP180;68951;53.130;18.104;2023-12-28T01:45:22;100937.20;;;
79495;BMP180;68951;53.130;18.104;2023-12-28T01:47:52;100921.80;;;
79495;BMP180;68951;53.130;18.104;2023-12-28T01:50:21;100906.20;;;
79495;BMP180;68951;53.130;18.104;2023-12-28T01:52:49;100894.80;;;
79495;BMP180;68951;53.130;18.104;2023-12-28T01:55:17;100885.60;;;
79495;BMP180;68951;53.130;18.104;2023-12-28T01:57:44;100886.00;;;
79495;BMP180;68951;53.130;18.104;2023-12-28T02:00:13;100880.40;;;
79495;BMP180;68951;53.130;18.104;2023-12-28T02:02:40;100872.00;;;
79495;BMP180;68951;53.130;18.104;2023-12-28T02:05:11;100860.80;;;
79495;BMP180;68951;53.130;18.104;2023-12-28T02:07:41;100858.20;;;
79495;BMP180;68951;53.130;18.104;2023-12-28T02:10:07;100848.80;;;
79495;BMP180;68951;53.130;18.104;2023-12-28T02:12:34;100845.00;;;
79495;BMP180;68951;53.130;18.104;2023-12-28T02:15:02;100833.60;;;
79495;BMP180;68951;53.130;18.104;2023-12-28T02:17:47;100822.60;;;
79495;BMP180;68951;53.130;18.104;2023-12-28T02:20:20;100813.00;;;
79495;BMP180;68951;53.130;18.104;2023-12-28T02:22:47;100812.20;;;
79495;BMP180;68951;53.130;18.104;2023-12-28T02:25:14;100809.20;;;
79495;BMP180;68951;53.130;18.104;2023-12-28T02:27:47;100805.20;;;
79495;BMP180;68951;53.130;18.104;2023-12-28T02:30:18;100798.60;;;
79495;BMP180;68951;53.130;18.104;2023-12-28T02:35:59;100783.20;;;
79495;BMP180;68951;53.130;18.104;2023-12-28T02:38:30;100771.60;;;
79495;BMP180;68951;53.130;18.104;2023-12-28T02:41:00;100758.80;;;
79495;BMP180;68951;53.130;18.104;2023-12-28T02:43:27;100763.00;;;
79495;BMP180;68951;53.130;18.104;2023-12-28T02:45:54;100752.60;;;
79495;BMP180;68951;53.130;18.104;2023-12-28T02:48:21;100744.80;;;
79495;BMP180;68951;53.130;18.104;2023-12-28T02:50:47;100726.20;;;
79495;BMP180;68951;53.130;18.104;2023-12-28T02:53:15;100720.00;;;
79495;BMP180;68951;53.130;18.104;2023-12-28T02:55:41;100710.00;;;
79495;BMP180;68951;53.130;18.104;2023-12-28T02:58:08;100705.20;;;
79495;BMP180;68951;53.130;18.104;2023-12-28T03:00:35;100698.00;;;
79495;BMP180;68951;53.130;18.104;2023-12-28T03:03:03;100692.00;;;
79495;BMP180;68951;53.130;18.104;2023-12-28T03:05:30;100687.00;;;
79495;BMP180;68951;53.130;18.104;2023-12-28T03:07:57;100685.40;;;
79495;BMP180;68951;53.130;18.104;2023-12-28T03:10:24;100668.80;;;
79495;BMP180;68951;53.130;18.104;2023-12-28T03:12:51;100652.00;;;
79495;BMP180;68951;53.130;18.104;2023-12-28T03:15:18;100648.60;;;
79495;BMP180;68951;53.130;18.104;2023-12-28T03:17:45;100650.40;;;
79495;BMP180;68951;53.130;18.104;2023-12-28T03:20:11;100653.20;;;
79495;BMP180;68951;53.130;18.104;2023-12-28T03:22:38;100640.80;;;
79495;BMP180;68951;53.130;18.104;2023-12-28T03:25:05;100638.60;;;
79495;BMP180;68951;53.130;18.104;2023-12-28T03:27:32;100630.40;;;
79495;BMP180;68951;53.130;18.104;2023-12-28T03:29:59;100622.40;;;
79495;BMP180;68951;53.130;18.104;2023-12-28T03:32:27;100620.40;;;
79495;BMP180;68951;53.130;18.104;2023-12-28T03:34:53;100618.00;;;
79495;BMP180;68951;53.130;18.104;2023-12-28T03:37:20;100618.20;;;
79495;BMP180;68951;53.130;18.104;2023-12-28T03:39:47;100633.20;;;
79495;BMP180;68951;53.130;18.104;2023-12-28T03:42:14;100654.20;;;
79495;BMP180;68951;53.130;18.104;2023-12-28T03:44:41;100658.20;;;
79495;BMP180;68951;53.130;18.104;2023-12-28T03:47:08;100656.60;;;
79495;BMP180;68951;53.130;18.104;2023-12-28T03:49:35;100653.40;;;
79495;BMP180;68951;53.130;18.104;2023-12-28T03:52:02;100656.00;;;
79495;BMP180;68951;53.130;18.104;2023-12-28T03:54:28;100640.80;;;
79495;BMP180;68951;53.130;18.104;2023-12-28T03:56:56;100636.20;;;
79495;BMP180;68951;53.130;18.104;2023-12-28T03:59:23;100618.00;;;
79495;BMP180;68951;53.130;18.104;2023-12-28T04:01:50;100606.40;;;
79495;BMP180;68951;53.130;18.104;2023-12-28T04:04:17;100596.40;;;
79495;BMP180;68951;53.130;18.104;2023-12-28T04:06:44;100593.20;;;
79495;BMP180;68951;53.130;18.104;2023-12-28T04:09:14;100595.40;;;
79495;BMP180;68951;53.130;18.104;2023-12-28T04:11:41;100582.40;;;
79495;BMP180;68951;53.130;18.104;2023-12-28T04:14:08;100577.00;;;
79495;BMP180;68951;53.130;18.104;2023-12-28T04:16:35;100582.00;;;
79495;BMP180;68951;53.130;18.104;2023-12-28T04:19:02;100578.40;;;
79495;BMP180;68951;53.130;18.104;2023-12-28T04:21:29;100557.80;;;
79495;BMP180;68951;53.130;18.104;2023-12-28T04:23:55;100542.60;;;
79495;BMP180;68951;53.130;18.104;2023-12-28T04:26:23;100557.40;;;
79495;BMP180;68951;53.130;18.104;2023-12-28T04:28:49;100562.00;;;
79495;BMP180;68951;53.130;18.104;2023-12-28T04:31:16;100551.40;;;
79495;BMP180;68951;53.130;18.104;2023-12-28T04:33:43;100547.00;;;
79495;BMP180;68951;53.130;18.104;2023-12-28T04:36:09;100543.00;;;
79495;BMP180;68951;53.130;18.104;2023-12-28T04:38:36;100529.40;;;
79495;BMP180;68951;53.130;18.104;2023-12-28T04:41:05;100514.20;;;
79495;BMP180;68951;53.130;18.104;2023-12-28T04:43:32;100492.80;;;
79495;BMP180;68951;53.130;18.104;2023-12-28T04:46:05;100503.20;;;
79495;BMP180;68951;53.130;18.104;2023-12-28T04:48:32;100518.80;;;
79495;BMP180;68951;53.130;18.104;2023-12-28T04:51:02;100528.00;;;
79495;BMP180;68951;53.130;18.104;2023-12-28T04:53:29;100532.00;;;
79495;BMP180;68951;53.130;18.104;2023-12-28T04:55:56;100548.80;;;
79495;BMP180;68951;53.130;18.104;2023-12-28T04:58:23;100550.60;;;
79495;BMP180;68951;53.130;18.104;2023-12-28T05:00:50;100530.00;;;
79495;BMP180;68951;53.130;18.104;2023-12-28T05:03:16;100525.60;;;
79495;BMP180;68951;53.130;18.104;2023-12-28T05:05:43;100526.00;;;
79495;BMP180;68951;53.130;18.104;2023-12-28T05:08:10;100528.80;;;
79495;BMP180;68951;53.130;18.104;2023-12-28T05:10:37;100508.20;;;
79495;BMP180;68951;53.130;18.104;2023-12-28T05:13:04;100535.00;;;
79495;BMP180;68951;53.130;18.104;2023-12-28T05:15:30;100533.60;;;
79495;BMP180;68951;53.130;18.104;2023-12-28T05:17:57;100515.60;;;
79495;BMP180;68951;53.130;18.104;2023-12-28T05:20:24;100516.00;;;
79495;BMP180;68951;53.130;18.104;2023-12-28T05:22:51;100499.40;;;
79495;BMP180;68951;53.130;18.104;2023-12-28T05:25:18;100504.40;;;
79495;BMP180;68951;53.130;18.104;2023-12-28T05:27:44;100505.00;;;
79495;BMP180;68951;53.130;18.104;2023-12-28T05:30:12;100507.80;;;
79495;BMP180;68951;53.130;18.104;2023-12-28T05:32:39;100514.60;;;
79495;BMP180;68951;53.130;18.104;2023-12-28T05:35:06;100514.80;;;
79495;BMP180;68951;53.130;18.104;2023-12-28T05:37:34;100508.60;;;
79495;BMP180;68951;53.130;18.104;2023-12-28T05:40:00;100497.40;;;
79495;BMP180;68951;53.130;18.104;2023-12-28T05:42:28;100498.80;;;
79495;BMP180;68951;53.130;18.104;2023-12-28T05:44:55;100493.60;;;
79495;BMP180;68951;53.130;18.104;2023-12-28T05:47:22;100505.60;;;
79495;BMP180;68951;53.130;18.104;2023-12-28T05:49:49;100491.80;;;
79495;BMP180;68951;53.130;18.104;2023-12-28T05:52:16;100479.40;;;
79495;BMP180;68951;53.130;18.104;2023-12-28T05:54:46;100493.80;;;
79495;BMP180;68951;53.130;18.104;2023-12-28T05:57:14;100485.00;;;
79495;BMP180;68951;53.130;18.104;2023-12-28T05:59:41;100490.40;;;
79495;BMP180;68951;53.130;18.104;2023-12-28T06:02:08;100488.00;;;
79495;BMP180;68951;53.130;18.104;2023-12-28T06:04:35;100482.60;;;
79495;BMP180;68951;53.130;18.104;2023-12-28T06:07:04;100466.80;;;
79495;BMP180;68951;53.130;18.104;2023-12-28T06:09:31;100452.60;;;
79495;BMP180;68951;53.130;18.104;2023-12-28T06:11:59;100448.80;;;
79495;BMP180;68951;53.130;18.104;2023-12-28T06:14:26;100449.80;;;
79495;BMP180;68951;53.130;18.104;2023-12-28T06:16:53;100448.60;;;
79495;BMP180;68951;53.130;18.104;2023-12-28T06:19:20;100452.40;;;
79495;BMP180;68951;53.130;18.104;2023-12-28T06:21:48;100445.40;;;
79495;BMP180;68951;53.130;18.104;2023-12-28T06:24:16;100457.80;;;
79495;BMP180;68951;53.130;18.104;2023-12-28T06:26:44;100462.00;;;
79495;BMP180;68951;53.130;18.104;2023-12-28T06:29:11;100466.80;;;
79495;BMP180;68951;53.130;18.104;2023-12-28T06:31:38;100464.60;;;
79495;BMP180;68951;53.130;18.104;2023-12-28T06:34:06;100476.20;;;
79495;BMP180;68951;53.130;18.104;2023-12-28T06:36:33;100475.20;;;
79495;BMP180;68951;53.130;18.104;2023-12-28T06:39:00;100469.00;;;
79495;BMP180;68951;53.130;18.104;2023-12-28T06:41:27;100470.00;;;
79495;BMP180;68951;53.130;18.104;2023-12-28T06:43:54;100466.80;;;
79495;BMP180;68951;53.130;18.104;2023-12-28T06:46:21;100461.80;;;
79495;BMP180;68951;53.130;18.104;2023-12-28T06:48:48;100467.80;;;
79495;BMP180;68951;53.130;18.104;2023-12-28T06:51:21;100479.40;;;
79495;BMP180;68951;53.130;18.104;2023-12-28T06:53:48;100485.00;;;
79495;BMP180;68951;53.130;18.104;2023-12-28T06:56:16;100488.60;;;
79495;BMP180;68951;53.130;18.104;2023-12-28T06:58:43;100494.20;;;
79495;BMP180;68951;53.130;18.104;2023-12-28T07:01:10;100499.20;;;
79495;BMP180;68951;53.130;18.104;2023-12-28T07:03:37;100499.60;;;
79495;BMP180;68951;53.130;18.104;2023-12-28T07:06:05;100502.00;;;
79495;BMP180;68951;53.130;18.104;2023-12-28T07:08:32;100512.40;;;
79495;BMP180;68951;53.130;18.104;2023-12-28T07:10:59;100508.00;;;
79495;BMP180;68951;53.130;18.104;2023-12-28T07:13:26;100509.60;;;
79495;BMP180;68951;53.130;18.104;2023-12-28T07:15:53;100511.80;;;
79495;BMP180;68951;53.130;18.104;2023-12-28T07:18:20;100518.60;;;
79495;BMP180;68951;53.130;18.104;2023-12-28T07:20:47;100536.20;;;
79495;BMP180;68951;53.130;18.104;2023-12-28T07:23:15;100541.00;;;
79495;BMP180;68951;53.130;18.104;2023-12-28T07:25:41;100535.60;;;
79495;BMP180;68951;53.130;18.104;2023-12-28T07:28:09;100531.60;;;
79495;BMP180;68951;53.130;18.104;2023-12-28T07:30:37;100528.60;;;
79495;BMP180;68951;53.130;18.104;2023-12-28T07:33:04;100528.80;;;
79495;BMP180;68951;53.130;18.104;2023-12-28T07:35:31;100542.00;;;
79495;BMP180;68951;53.130;18.104;2023-12-28T07:37:57;100542.60;;;
79495;BMP180;68951;53.130;18.104;2023-12-28T07:40:24;100542.80;;;
79495;BMP180;68951;53.130;18.104;2023-12-28T07:42:51;100541.80;;;
79495;BMP180;68951;53.130;18.104;2023-12-28T07:45:18;100539.00;;;
79495;BMP180;68951;53.130;18.104;2023-12-28T07:47:50;100539.60;;;
79495;BMP180;68951;53.130;18.104;2023-12-28T07:50:19;100545.80;;;
79495;BMP180;68951;53.130;18.104;2023-12-28T07:52:46;100537.20;;;
79495;BMP180;68951;53.130;18.104;2023-12-28T07:55:14;100537.20;;;
79495;BMP180;68951;53.130;18.104;2023-12-28T07:57:42;100537.60;;;
79495;BMP180;68951;53.130;18.104;2023-12-28T08:00:10;100533.80;;;
79495;BMP180;68951;53.130;18.104;2023-12-28T08:02:37;100539.80;;;
79495;BMP180;68951;53.130;18.104;2023-12-28T08:05:05;100551.80;;;
79495;BMP180;68951;53.130;18.104;2023-12-28T08:07:32;100542.20;;;
79495;BMP180;68951;53.130;18.104;2023-12-28T08:10:00;100542.80;;;
79495;BMP180;68951;53.130;18.104;2023-12-28T08:12:27;100547.00;;;
79495;BMP180;68951;53.130;18.104;2023-12-28T08:14:55;100555.40;;;
79495;BMP180;68951;53.130;18.104;2023-12-28T08:17:22;100556.20;;;
79495;BMP180;68951;53.130;18.104;2023-12-28T08:19:49;100552.60;;;
79495;BMP180;68951;53.130;18.104;2023-12-28T08:22:16;100554.00;;;
79495;BMP180;68951;53.130;18.104;2023-12-28T08:24:43;100556.00;;;
79495;BMP180;68951;53.130;18.104;2023-12-28T08:27:10;100566.20;;;
79495;BMP180;68951;53.130;18.104;2023-12-28T08:29:37;100567.80;;;
79495;BMP180;68951;53.130;18.104;2023-12-28T08:32:04;100563.80;;;
79495;BMP180;68951;53.130;18.104;2023-12-28T08:34:31;100559.00;;;
79495;BMP180;68951;53.130;18.104;2023-12-28T08:36:58;100555.40;;;
79495;BMP180;68951;53.130;18.104;2023-12-28T08:39:25;100566.80;;;
79495;BMP180;68951;53.130;18.104;2023-12-28T08:41:52;100567.20;;;
79495;BMP180;68951;53.130;18.104;2023-12-28T08:44:19;100567.00;;;
79495;BMP180;68951;53.130;18.104;2023-12-28T08:46:46;100562.60;;;
79495;BMP180;68951;53.130;18.104;2023-12-28T08:49:13;100568.20;;;
79495;BMP180;68951;53.130;18.104;2023-12-28T08:51:42;100573.20;;;
79495;BMP180;68951;53.130;18.104;2023-12-28T08:54:09;100580.00;;;
79495;BMP180;68951;53.130;18.104;2023-12-28T08:56:36;100579.80;;;
79495;BMP180;68951;53.130;18.104;2023-12-28T08:59:02;100596.00;;;
79495;BMP180;68951;53.130;18.104;2023-12-28T09:01:30;100587.00;;;
79495;BMP180;68951;53.130;18.104;2023-12-28T09:03:58;100584.60;;;
79495;BMP180;68951;53.130;18.104;2023-12-28T09:06:26;100599.60;;;
79495;BMP180;68951;53.130;18.104;2023-12-28T09:08:53;100596.40;;;
79495;BMP180;68951;53.130;18.104;2023-12-28T09:11:20;100591.40;;;
